Kriti Ruby — SVAT5 — position and weather

sailwx.info

Track history (hours):
 
Tides and Currents Weather Stations Pressure Air Temp Water Temp Dewpoint Dewpoint Depression Visibility Wind Speed Wind Dir Waves Ship Positions

Kriti Ruby

Last reported at 2014-Nov-24 07:31 UTC. Time now 2014-Nov-27 19:36 UTC.
Position N 29°35' W 093°14'.

Length 183 m; draft 8.6 m.

Type: Ship (hazmat cat A). MMSI: 240941000.

Date/timePositionNaut miles runAvg speedWind from/ knotsBaromVisibWave heightAir tempDewpointWater temp
2014-Nov-24 07:31N 29°35' W 093°14'  
2014-Nov-22 00:14N 19°27' W 095°54'914.0
2014-Nov-21 23:34N 19°18' W 095°58'9 9.3
2014-Nov-21 22:34N 19°12' W 096°06'2 1.6
2014-Nov-21 21:31N 19°12' W 096°07'0 0.0
2014-Nov-21 20:31N 19°12' W 096°07'0 0.0
2014-Nov-21 19:31N 19°12' W 096°07'0 0.0
2014-Nov-21 18:31N 19°12' W 096°07'0 0.0
2014-Nov-21 17:31N 19°12' W 096°07'0 0.0
2014-Nov-21 16:31N 19°12' W 096°07'0 0.0
2014-Nov-21 15:31N 19°12' W 096°07'0 0.0
2014-Nov-21 14:31N 19°12' W 096°07'0 0.0
2014-Nov-21 13:31N 19°12' W 096°07'0 0.0
2014-Nov-21 12:31N 19°12' W 096°07'0 0.0
2014-Nov-21 11:31N 19°12' W 096°07'0 0.0
2014-Nov-21 10:28N 19°12' W 096°07'0 0.0
2014-Nov-21 09:31N 19°12' W 096°07'0 0.0
2014-Nov-21 08:31N 19°12' W 096°07'0 0.0
2014-Nov-21 07:31N 19°12' W 096°07'0 0.0
2014-Nov-21 06:31N 19°12' W 096°07'0 0.0
2014-Nov-21 05:28N 19°12' W 096°07'0 0.0
2014-Nov-21 04:31N 19°12' W 096°07'0 0.0
2014-Nov-21 03:31N 19°12' W 096°07'0 0.0
2014-Nov-21 02:31N 19°12' W 096°07'0 0.0
2014-Nov-21 01:31N 19°12' W 096°07'0 0.0
2014-Nov-21 00:34N 19°12' W 096°07'5 5.3
2014-Nov-20 23:33N 19°13' W 096°02'8 8.0
2014-Nov-20 22:33N 19°21' W 096°01'1313.3
2014-Nov-20 21:33N 19°32' W 096°08'1413.6
2014-Nov-20 20:30N 19°46' W 096°14'  
Track history (hours):
 
Tides and Currents Weather Stations Pressure Air Temp Water Temp Dewpoint Dewpoint Depression Visibility Wind Speed Wind Dir Waves Ship Positions

Kriti Ruby

Last reported at 2014-Nov-24 07:31 UTC. Time now 2014-Nov-27 19:36 UTC.
Position N 29°35' W 093°14'.

Length 183 m; draft 8.6 m.

Type: Ship (hazmat cat A). MMSI: 240941000.

Date/timePositionNaut miles runAvg speedWind from/ knotsBaromVisibWave heightAir tempDewpointWater temp
2014-Nov-24 07:31N 29°35' W 093°14'  
2014-Nov-22 00:14N 19°27' W 095°54'914.0
2014-Nov-21 23:34N 19°18' W 095°58'9 9.3
2014-Nov-21 22:34N 19°12' W 096°06'2 1.6
2014-Nov-21 21:31N 19°12' W 096°07'0 0.0
2014-Nov-21 20:31N 19°12' W 096°07'0 0.0
2014-Nov-21 19:31N 19°12' W 096°07'0 0.0
2014-Nov-21 18:31N 19°12' W 096°07'0 0.0
2014-Nov-21 17:31N 19°12' W 096°07'0 0.0
2014-Nov-21 16:31N 19°12' W 096°07'0 0.0
2014-Nov-21 15:31N 19°12' W 096°07'0 0.0
2014-Nov-21 14:31N 19°12' W 096°07'0 0.0
2014-Nov-21 13:31N 19°12' W 096°07'0 0.0
2014-Nov-21 12:31N 19°12' W 096°07'0 0.0
2014-Nov-21 11:31N 19°12' W 096°07'0 0.0
2014-Nov-21 10:28N 19°12' W 096°07'0 0.0
2014-Nov-21 09:31N 19°12' W 096°07'0 0.0
2014-Nov-21 08:31N 19°12' W 096°07'0 0.0
2014-Nov-21 07:31N 19°12' W 096°07'0 0.0
2014-Nov-21 06:31N 19°12' W 096°07'0 0.0
2014-Nov-21 05:28N 19°12' W 096°07'0 0.0
2014-Nov-21 04:31N 19°12' W 096°07'0 0.0
2014-Nov-21 03:31N 19°12' W 096°07'0 0.0
2014-Nov-21 02:31N 19°12' W 096°07'0 0.0
2014-Nov-21 01:31N 19°12' W 096°07'0 0.0
2014-Nov-21 00:34N 19°12' W 096°07'5 5.3
2014-Nov-20 23:33N 19°13' W 096°02'8 8.0
2014-Nov-20 22:33N 19°21' W 096°01'1313.3
2014-Nov-20 21:33N 19°32' W 096°08'1413.6
2014-Nov-20 20:30N 19°46' W 096°14'  

Dump ship's entire track history